sensor_id;sensor_type;location;lat;lon;timestamp;temperature;humidity
51215;DHT22;63849;47.546;19.254;2023-04-03T00:01:43;7.30;83.00
51215;DHT22;63849;47.546;19.254;2023-04-03T00:04:08;7.20;81.50
51215;DHT22;63849;47.546;19.254;2023-04-03T00:06:34;7.30;82.50
51215;DHT22;63849;47.546;19.254;2023-04-03T00:09:00;7.20;81.70
51215;DHT22;63849;47.546;19.254;2023-04-03T00:11:26;7.30;81.10
51215;DHT22;63849;47.546;19.254;2023-04-03T00:13:52;7.20;83.20
51215;DHT22;63849;47.546;19.254;2023-04-03T00:16:18;7.10;83.20
51215;DHT22;63849;47.546;19.254;2023-04-03T00:18:44;7.30;83.10
51215;DHT22;63849;47.546;19.254;2023-04-03T00:21:13;7.10;83.80
51215;DHT22;63849;47.546;19.254;2023-04-03T00:23:39;7.10;83.70
51215;DHT22;63849;47.546;19.254;2023-04-03T00:26:05;7.20;83.40
51215;DHT22;63849;47.546;19.254;2023-04-03T00:28:31;7.20;83.20
51215;DHT22;63849;47.546;19.254;2023-04-03T00:30:57;7.10;84.40
51215;DHT22;63849;47.546;19.254;2023-04-03T00:33:23;7.00;83.80
51215;DHT22;63849;47.546;19.254;2023-04-03T00:35:50;7.10;83.30
51215;DHT22;63849;47.546;19.254;2023-04-03T00:38:16;7.10;83.00
51215;DHT22;63849;47.546;19.254;2023-04-03T00:40:45;7.00;80.90
51215;DHT22;63849;47.546;19.254;2023-04-03T00:43:20;7.10;82.50
51215;DHT22;63849;47.546;19.254;2023-04-03T00:45:57;7.20;81.70
51215;DHT22;63849;47.546;19.254;2023-04-03T00:48:30;7.10;81.90
51215;DHT22;63849;47.546;19.254;2023-04-03T00:50:58;7.00;81.70
51215;DHT22;63849;47.546;19.254;2023-04-03T00:53:28;7.10;82.50
51215;DHT22;63849;47.546;19.254;2023-04-03T00:55:56;7.10;83.00
51215;DHT22;63849;47.546;19.254;2023-04-03T00:58:28;6.90;84.20
51215;DHT22;63849;47.546;19.254;2023-04-03T01:00:58;6.90;83.50
51215;DHT22;63849;47.546;19.254;2023-04-03T01:03:24;7.00;83.00
51215;DHT22;63849;47.546;19.254;2023-04-03T01:05:50;7.00;81.80
51215;DHT22;63849;47.546;19.254;2023-04-03T01:08:17;6.80;82.30
51215;DHT22;63849;47.546;19.254;2023-04-03T01:10:43;6.80;81.80
51215;DHT22;63849;47.546;19.254;2023-04-03T01:13:30;6.80;81.00
51215;DHT22;63849;47.546;19.254;2023-04-03T01:15:57;6.80;80.50
51215;DHT22;63849;47.546;19.254;2023-04-03T01:18:26;6.70;80.80
51215;DHT22;63849;47.546;19.254;2023-04-03T01:26:06;6.70;79.10
51215;DHT22;63849;47.546;19.254;2023-04-03T01:28:34;6.60;80.50
51215;DHT22;63849;47.546;19.254;2023-04-03T01:33:50;6.40;79.50
51215;DHT22;63849;47.546;19.254;2023-04-03T01:36:20;6.50;79.20
51215;DHT22;63849;47.546;19.254;2023-04-03T01:38:47;6.50;79.70
51215;DHT22;63849;47.546;19.254;2023-04-03T01:41:13;6.30;78.40
51215;DHT22;63849;47.546;19.254;2023-04-03T01:43:39;6.30;77.70
51215;DHT22;63849;47.546;19.254;2023-04-03T01:46:05;6.40;79.10
51215;DHT22;63849;47.546;19.254;2023-04-03T01:48:30;6.30;77.50
51215;DHT22;63849;47.546;19.254;2023-04-03T01:50:56;6.30;77.90
51215;DHT22;63849;47.546;19.254;2023-04-03T01:53:22;6.40;79.10
51215;DHT22;63849;47.546;19.254;2023-04-03T01:55:48;6.50;78.60
51215;DHT22;63849;47.546;19.254;2023-04-03T01:58:14;6.30;77.40
51215;DHT22;63849;47.546;19.254;2023-04-03T02:00:40;6.30;79.30
51215;DHT22;63849;47.546;19.254;2023-04-03T02:03:06;6.40;77.10
51215;DHT22;63849;47.546;19.254;2023-04-03T02:05:32;6.30;75.70
51215;DHT22;63849;47.546;19.254;2023-04-03T02:07:58;6.50;77.00
51215;DHT22;63849;47.546;19.254;2023-04-03T02:10:24;6.30;76.50
51215;DHT22;63849;47.546;19.254;2023-04-03T02:12:50;6.40;76.40
51215;DHT22;63849;47.546;19.254;2023-04-03T02:15:17;6.40;75.40
51215;DHT22;63849;47.546;19.254;2023-04-03T02:17:43;6.50;76.40
51215;DHT22;63849;47.546;19.254;2023-04-03T02:20:09;6.30;73.90
51215;DHT22;63849;47.546;19.254;2023-04-03T02:22:35;6.40;76.60
51215;DHT22;63849;47.546;19.254;2023-04-03T02:25:01;6.30;74.50
51215;DHT22;63849;47.546;19.254;2023-04-03T02:27:27;6.30;75.90
51215;DHT22;63849;47.546;19.254;2023-04-03T02:29:53;6.40;75.60
51215;DHT22;63849;47.546;19.254;2023-04-03T02:32:19;6.40;75.50
51215;DHT22;63849;47.546;19.254;2023-04-03T02:34:45;6.40;73.80
51215;DHT22;63849;47.546;19.254;2023-04-03T02:37:11;6.30;74.00
51215;DHT22;63849;47.546;19.254;2023-04-03T02:39:37;6.30;72.70
51215;DHT22;63849;47.546;19.254;2023-04-03T02:42:02;6.20;74.40
51215;DHT22;63849;47.546;19.254;2023-04-03T02:44:29;6.20;71.50
51215;DHT22;63849;47.546;19.254;2023-04-03T02:46:55;6.30;73.60
51215;DHT22;63849;47.546;19.254;2023-04-03T02:49:21;6.30;74.10
51215;DHT22;63849;47.546;19.254;2023-04-03T02:51:46;6.30;71.20
51215;DHT22;63849;47.546;19.254;2023-04-03T02:54:13;6.20;72.10
51215;DHT22;63849;47.546;19.254;2023-04-03T02:56:39;6.10;71.80
51215;DHT22;63849;47.546;19.254;2023-04-03T02:59:05;6.00;72.90
51215;DHT22;63849;47.546;19.254;2023-04-03T03:01:31;6.00;72.50
51215;DHT22;63849;47.546;19.254;2023-04-03T03:04:01;5.80;73.70
51215;DHT22;63849;47.546;19.254;2023-04-03T03:06:27;5.80;73.70
51215;DHT22;63849;47.546;19.254;2023-04-03T03:08:53;5.80;74.80
51215;DHT22;63849;47.546;19.254;2023-04-03T03:11:19;5.90;73.70
51215;DHT22;63849;47.546;19.254;2023-04-03T03:13:45;6.00;73.50
51215;DHT22;63849;47.546;19.254;2023-04-03T03:16:11;5.90;73.70
51215;DHT22;63849;47.546;19.254;2023-04-03T03:18:37;5.80;74.00
51215;DHT22;63849;47.546;19.254;2023-04-03T03:21:03;5.80;73.40
51215;DHT22;63849;47.546;19.254;2023-04-03T03:23:30;5.80;74.70
51215;DHT22;63849;47.546;19.254;2023-04-03T03:26:00;5.70;74.90
51215;DHT22;63849;47.546;19.254;2023-04-03T03:28:26;5.80;73.70
51215;DHT22;63849;47.546;19.254;2023-04-03T03:30:52;5.80;74.20
51215;DHT22;63849;47.546;19.254;2023-04-03T03:33:18;5.80;74.50
51215;DHT22;63849;47.546;19.254;2023-04-03T03:35:44;5.60;74.60
51215;DHT22;63849;47.546;19.254;2023-04-03T03:38:10;5.60;74.80
51215;DHT22;63849;47.546;19.254;2023-04-03T03:40:36;5.60;75.30
51215;DHT22;63849;47.546;19.254;2023-04-03T03:43:02;5.50;75.90
51215;DHT22;63849;47.546;19.254;2023-04-03T03:45:29;5.50;76.20
51215;DHT22;63849;47.546;19.254;2023-04-03T03:47:55;5.40;75.90
51215;DHT22;63849;47.546;19.254;2023-04-03T03:50:21;5.40;76.40
51215;DHT22;63849;47.546;19.254;2023-04-03T03:52:46;5.40;75.60
51215;DHT22;63849;47.546;19.254;2023-04-03T03:55:12;5.30;77.30
51215;DHT22;63849;47.546;19.254;2023-04-03T03:57:38;5.30;76.50
51215;DHT22;63849;47.546;19.254;2023-04-03T04:00:04;5.30;76.20
51215;DHT22;63849;47.546;19.254;2023-04-03T04:02:30;5.30;75.90
51215;DHT22;63849;47.546;19.254;2023-04-03T04:04:56;5.20;76.40
51215;DHT22;63849;47.546;19.254;2023-04-03T04:07:22;5.10;76.40
51215;DHT22;63849;47.546;19.254;2023-04-03T04:09:48;5.00;77.20
51215;DHT22;63849;47.546;19.254;2023-04-03T04:12:14;4.90;76.60
51215;DHT22;63849;47.546;19.254;2023-04-03T04:14:40;4.90;76.40
51215;DHT22;63849;47.546;19.254;2023-04-03T04:17:06;4.90;75.30
51215;DHT22;63849;47.546;19.254;2023-04-03T04:19:31;4.80;76.20
51215;DHT22;63849;47.546;19.254;2023-04-03T04:21:58;4.80;76.20
51215;DHT22;63849;47.546;19.254;2023-04-03T04:24:24;4.90;75.50
51215;DHT22;63849;47.546;19.254;2023-04-03T04:26:50;4.90;75.90
51215;DHT22;63849;47.546;19.254;2023-04-03T04:29:16;5.10;74.80
51215;DHT22;63849;47.546;19.254;2023-04-03T04:31:42;5.00;75.60
51215;DHT22;63849;47.546;19.254;2023-04-03T04:34:08;5.00;74.50
51215;DHT22;63849;47.546;19.254;2023-04-03T04:36:34;5.00;75.20
51215;DHT22;63849;47.546;19.254;2023-04-03T04:38:59;5.20;74.40
51215;DHT22;63849;47.546;19.254;2023-04-03T04:41:25;5.10;74.10
51215;DHT22;63849;47.546;19.254;2023-04-03T04:43:52;5.10;74.10
51215;DHT22;63849;47.546;19.254;2023-04-03T04:46:18;5.10;74.40
51215;DHT22;63849;47.546;19.254;2023-04-03T04:48:44;5.20;73.70
51215;DHT22;63849;47.546;19.254;2023-04-03T04:51:11;5.30;73.60
51215;DHT22;63849;47.546;19.254;2023-04-03T04:53:38;5.30;73.40
51215;DHT22;63849;47.546;19.254;2023-04-03T04:56:04;5.30;74.90
51215;DHT22;63849;47.546;19.254;2023-04-03T04:58:30;5.30;74.10
51215;DHT22;63849;47.546;19.254;2023-04-03T05:03:25;5.40;74.00
51215;DHT22;63849;47.546;19.254;2023-04-03T05:05:51;5.50;72.30
51215;DHT22;63849;47.546;19.254;2023-04-03T05:08:17;5.80;72.80
51215;DHT22;63849;47.546;19.254;2023-04-03T05:10:45;6.10;71.90
51215;DHT22;63849;47.546;19.254;2023-04-03T05:13:11;6.20;71.80
51215;DHT22;63849;47.546;19.254;2023-04-03T05:15:37;6.30;71.80
51215;DHT22;63849;47.546;19.254;2023-04-03T05:18:04;6.40;70.90
51215;DHT22;63849;47.546;19.254;2023-04-03T05:20:31;6.30;70.70
51215;DHT22;63849;47.546;19.254;2023-04-03T05:22:57;6.20;71.10
51215;DHT22;63849;47.546;19.254;2023-04-03T05:25:22;6.10;70.70
51215;DHT22;63849;47.546;19.254;2023-04-03T05:27:49;6.20;70.30
51215;DHT22;63849;47.546;19.254;2023-04-03T05:30:14;6.20;70.70
51215;DHT22;63849;47.546;19.254;2023-04-03T05:32:44;6.10;70.80
51215;DHT22;63849;47.546;19.254;2023-04-03T05:35:11;6.20;70.90
51215;DHT22;63849;47.546;19.254;2023-04-03T05:37:37;6.40;71.10
51215;DHT22;63849;47.546;19.254;2023-04-03T05:40:04;6.40;70.50
51215;DHT22;63849;47.546;19.254;2023-04-03T05:42:32;6.30;70.50
51215;DHT22;63849;47.546;19.254;2023-04-03T05:44:58;6.30;69.70
51215;DHT22;63849;47.546;19.254;2023-04-03T05:47:24;6.70;69.40
51215;DHT22;63849;47.546;19.254;2023-04-03T05:49:52;6.50;68.40
51215;DHT22;63849;47.546;19.254;2023-04-03T05:52:28;6.60;67.80
51215;DHT22;63849;47.546;19.254;2023-04-03T05:54:55;6.30;68.30
51215;DHT22;63849;47.546;19.254;2023-04-03T05:57:21;6.10;70.00
51215;DHT22;63849;47.546;19.254;2023-04-03T05:59:47;6.20;69.90
51215;DHT22;63849;47.546;19.254;2023-04-03T06:02:16;6.10;69.40
51215;DHT22;63849;47.546;19.254;2023-04-03T06:04:42;5.80;68.80
51215;DHT22;63849;47.546;19.254;2023-04-03T06:07:15;5.80;69.50
51215;DHT22;63849;47.546;19.254;2023-04-03T06:09:42;6.20;69.30
51215;DHT22;63849;47.546;19.254;2023-04-03T06:12:11;6.10;67.80
51215;DHT22;63849;47.546;19.254;2023-04-03T06:14:37;6.20;68.80
51215;DHT22;63849;47.546;19.254;2023-04-03T06:17:06;6.30;68.60
51215;DHT22;63849;47.546;19.254;2023-04-03T06:19:32;6.60;65.60
51215;DHT22;63849;47.546;19.254;2023-04-03T06:21:58;7.30;62.00
51215;DHT22;63849;47.546;19.254;2023-04-03T06:24:24;8.40;58.80
51215;DHT22;63849;47.546;19.254;2023-04-03T06:26:51;9.70;58.50
51215;DHT22;63849;47.546;19.254;2023-04-03T06:29:18;9.70;54.80
51215;DHT22;63849;47.546;19.254;2023-04-03T06:31:45;9.60;55.10
51215;DHT22;63849;47.546;19.254;2023-04-03T06:34:12;8.00;57.00
51215;DHT22;63849;47.546;19.254;2023-04-03T06:36:38;7.30;59.20
51215;DHT22;63849;47.546;19.254;2023-04-03T06:39:04;7.50;62.10
51215;DHT22;63849;47.546;19.254;2023-04-03T06:41:32;7.80;60.80
51215;DHT22;63849;47.546;19.254;2023-04-03T06:43:57;7.30;60.30
51215;DHT22;63849;47.546;19.254;2023-04-03T06:46:25;7.30;62.20
51215;DHT22;63849;47.546;19.254;2023-04-03T06:48:51;7.60;61.00
51215;DHT22;63849;47.546;19.254;2023-04-03T06:51:18;7.70;62.50
51215;DHT22;63849;47.546;19.254;2023-04-03T06:53:46;7.80;59.00
51215;DHT22;63849;47.546;19.254;2023-04-03T06:56:14;7.90;59.60
51215;DHT22;63849;47.546;19.254;2023-04-03T06:58:41;9.20;61.60
51215;DHT22;63849;47.546;19.254;2023-04-03T07:01:08;11.60;55.10
51215;DHT22;63849;47.546;19.254;2023-04-03T07:03:36;10.80;49.70
51215;DHT22;63849;47.546;19.254;2023-04-03T07:06:03;10.10;54.80
51215;DHT22;63849;47.546;19.254;2023-04-03T07:08:29;10.30;54.40
51215;DHT22;63849;47.546;19.254;2023-04-03T07:10:55;10.00;54.10
51215;DHT22;63849;47.546;19.254;2023-04-03T07:13:22;9.50;56.00
51215;DHT22;63849;47.546;19.254;2023-04-03T07:15:48;9.60;57.50
51215;DHT22;63849;47.546;19.254;2023-04-03T07:18:14;8.90;56.20
51215;DHT22;63849;47.546;19.254;2023-04-03T07:20:40;8.80;57.00
51215;DHT22;63849;47.546;19.254;2023-04-03T07:23:07;8.70;59.20
51215;DHT22;63849;47.546;19.254;2023-04-03T07:25:35;9.00;58.40
51215;DHT22;63849;47.546;19.254;2023-04-03T07:28:00;8.90;57.30
51215;DHT22;63849;47.546;19.254;2023-04-03T07:30:28;8.40;57.10
51215;DHT22;63849;47.546;19.254;2023-04-03T07:33:03;8.80;59.30
51215;DHT22;63849;47.546;19.254;2023-04-03T07:35:29;8.80;58.60
51215;DHT22;63849;47.546;19.254;2023-04-03T07:37:55;9.40;59.20
51215;DHT22;63849;47.546;19.254;2023-04-03T07:40:23;9.20;58.20
51215;DHT22;63849;47.546;19.254;2023-04-03T07:42:52;9.30;56.90
51215;DHT22;63849;47.546;19.254;2023-04-03T07:45:18;9.10;56.30
51215;DHT22;63849;47.546;19.254;2023-04-03T07:47:44;8.80;55.90
51215;DHT22;63849;47.546;19.254;2023-04-03T07:50:10;8.80;57.00
51215;DHT22;63849;47.546;19.254;2023-04-03T07:52:36;8.80;56.60
51215;DHT22;63849;47.546;19.254;2023-04-03T07:55:06;9.10;56.80
51215;DHT22;63849;47.546;19.254;2023-04-03T07:57:32;8.90;56.80
51215;DHT22;63849;47.546;19.254;2023-04-03T07:59:57;9.10;56.20
51215;DHT22;63849;47.546;19.254;2023-04-03T08:02:23;8.70;56.20
51215;DHT22;63849;47.546;19.254;2023-04-03T08:04:52;8.90;56.80
51215;DHT22;63849;47.546;19.254;2023-04-03T08:07:19;9.30;55.40
51215;DHT22;63849;47.546;19.254;2023-04-03T08:09:45;8.90;56.20
51215;DHT22;63849;47.546;19.254;2023-04-03T08:12:11;8.90;56.80
51215;DHT22;63849;47.546;19.254;2023-04-03T08:14:37;9.20;56.10
51215;DHT22;63849;47.546;19.254;2023-04-03T08:17:06;9.10;56.40
51215;DHT22;63849;47.546;19.254;2023-04-03T08:19:41;8.90;55.40
51215;DHT22;63849;47.546;19.254;2023-04-03T08:22:07;8.80;55.20
51215;DHT22;63849;47.546;19.254;2023-04-03T08:24:33;8.60;55.50
51215;DHT22;63849;47.546;19.254;2023-04-03T08:26:59;9.00;58.10
51215;DHT22;63849;47.546;19.254;2023-04-03T08:29:27;9.20;56.80
51215;DHT22;63849;47.546;19.254;2023-04-03T08:31:53;9.60;54.80
51215;DHT22;63849;47.546;19.254;2023-04-03T08:34:19;9.70;55.40
51215;DHT22;63849;47.546;19.254;2023-04-03T08:36:45;8.80;55.90
51215;DHT22;63849;47.546;19.254;2023-04-03T08:39:12;8.60;56.80
51215;DHT22;63849;47.546;19.254;2023-04-03T08:41:42;8.90;58.60
51215;DHT22;63849;47.546;19.254;2023-04-03T08:44:39;9.10;58.20
51215;DHT22;63849;47.546;19.254;2023-04-03T08:47:28;9.50;59.00
51215;DHT22;63849;47.546;19.254;2023-04-03T08:50:08;9.90;56.00
51215;DHT22;63849;47.546;19.254;2023-04-03T08:52:50;9.20;53.90
51215;DHT22;63849;47.546;19.254;2023-04-03T08:58:05;9.40;54.60
51215;DHT22;63849;47.546;19.254;2023-04-03T09:03:20;9.20;54.00
51215;DHT22;63849;47.546;19.254;2023-04-03T09:06:38;9.30;52.60
51215;DHT22;63849;47.546;19.254;2023-04-03T09:09:15;9.80;52.90
51215;DHT22;63849;47.546;19.254;2023-04-03T09:16:59;10.30;51.70
51215;DHT22;63849;47.546;19.254;2023-04-03T09:22:10;10.00;54.20
51215;DHT22;63849;47.546;19.254;2023-04-03T09:24:37;10.00;53.60
51215;DHT22;63849;47.546;19.254;2023-04-03T09:27:10;9.70;52.00
51215;DHT22;63849;47.546;19.254;2023-04-03T09:29:41;9.60;51.90
51215;DHT22;63849;47.546;19.254;2023-04-03T09:32:27;9.70;52.40
51215;DHT22;63849;47.546;19.254;2023-04-03T09:34:57;10.10;52.50
51215;DHT22;63849;47.546;19.254;2023-04-03T09:37:38;10.40;49.80
51215;DHT22;63849;47.546;19.254;2023-04-03T09:40:05;10.30;53.50
51215;DHT22;63849;47.546;19.254;2023-04-03T09:42:32;11.00;50.20
51215;DHT22;63849;47.546;19.254;2023-04-03T09:45:00;11.00;51.20
51215;DHT22;63849;47.546;19.254;2023-04-03T09:47:29;11.40;49.80
51215;DHT22;63849;47.546;19.254;2023-04-03T09:52:40;11.20;49.20
51215;DHT22;63849;47.546;19.254;2023-04-03T09:55:19;11.40;49.80
51215;DHT22;63849;47.546;19.254;2023-04-03T09:57:53;11.20;47.50
51215;DHT22;63849;47.546;19.254;2023-04-03T10:00:36;10.30;50.20
51215;DHT22;63849;47.546;19.254;2023-04-03T10:03:03;10.40;51.10
51215;DHT22;63849;47.546;19.254;2023-04-03T10:05:35;9.80;50.10
51215;DHT22;63849;47.546;19.254;2023-04-03T10:10:48;9.60;51.40
51215;DHT22;63849;47.546;19.254;2023-04-03T10:13:17;9.40;52.70
51215;DHT22;63849;47.546;19.254;2023-04-03T10:15:56;9.10;53.00
51215;DHT22;63849;47.546;19.254;2023-04-03T10:18:31;9.30;53.20
51215;DHT22;63849;47.546;19.254;2023-04-03T10:21:08;9.30;53.20
51215;DHT22;63849;47.546;19.254;2023-04-03T10:23:49;9.30;54.20
51215;DHT22;63849;47.546;19.254;2023-04-03T10:26:19;9.40;53.10
51215;DHT22;63849;47.546;19.254;2023-04-03T10:29:16;9.20;52.40
51215;DHT22;63849;47.546;19.254;2023-04-03T10:34:32;9.20;52.50
51215;DHT22;63849;47.546;19.254;2023-04-03T10:37:38;9.40;51.70
51215;DHT22;63849;47.546;19.254;2023-04-03T10:46:03;9.60;50.90
51215;DHT22;63849;47.546;19.254;2023-04-03T10:51:42;9.80;50.00
51215;DHT22;63849;47.546;19.254;2023-04-03T10:54:55;9.80;49.90
51215;DHT22;63849;47.546;19.254;2023-04-03T10:57:05;10.10;48.90
51215;DHT22;63849;47.546;19.254;2023-04-03T10:59:48;9.70;48.70
51215;DHT22;63849;47.546;19.254;2023-04-03T11:02:30;9.70;48.80
51215;DHT22;63849;47.546;19.254;2023-04-03T11:05:34;9.90;48.30
51215;DHT22;63849;47.546;19.254;2023-04-03T11:08:27;10.10;48.20
51215;DHT22;63849;47.546;19.254;2023-04-03T11:11:00;10.30;48.50
51215;DHT22;63849;47.546;19.254;2023-04-03T11:13:51;10.30;47.10
51215;DHT22;63849;47.546;19.254;2023-04-03T11:16:25;10.30;46.80
51215;DHT22;63849;47.546;19.254;2023-04-03T11:19:01;10.20;47.30
51215;DHT22;63849;47.546;19.254;2023-04-03T11:21:45;10.30;48.40
51215;DHT22;63849;47.546;19.254;2023-04-03T11:24:25;10.30;45.90
51215;DHT22;63849;47.546;19.254;2023-04-03T11:26:54;10.30;47.60
51215;DHT22;63849;47.546;19.254;2023-04-03T11:29:24;10.30;45.70
51215;DHT22;63849;47.546;19.254;2023-04-03T11:34:41;10.30;46.50
51215;DHT22;63849;47.546;19.254;2023-04-03T11:40:29;10.90;45.40
51215;DHT22;63849;47.546;19.254;2023-04-03T11:43:21;11.20;47.40
51215;DHT22;63849;47.546;19.254;2023-04-03T11:45:56;11.50;47.00
51215;DHT22;63849;47.546;19.254;2023-04-03T11:51:01;11.20;46.50
51215;DHT22;63849;47.546;19.254;2023-04-03T11:53:38;11.70;46.10
51215;DHT22;63849;47.546;19.254;2023-04-03T11:56:28;11.20;45.20
51215;DHT22;63849;47.546;19.254;2023-04-03T12:01:53;10.50;46.60
51215;DHT22;63849;47.546;19.254;2023-04-03T12:04:25;10.50;50.20
51215;DHT22;63849;47.546;19.254;2023-04-03T12:07:19;10.30;47.10
51215;DHT22;63849;47.546;19.254;2023-04-03T12:12:35;10.40;46.70
51215;DHT22;63849;47.546;19.254;2023-04-03T12:15:22;10.20;47.10
51215;DHT22;63849;47.546;19.254;2023-04-03T12:17:49;10.40;48.60
51215;DHT22;63849;47.546;19.254;2023-04-03T12:20:56;10.40;48.30
51215;DHT22;63849;47.546;19.254;2023-04-03T12:23:36;10.20;47.30
51215;DHT22;63849;47.546;19.254;2023-04-03T12:26:25;9.90;47.50
51215;DHT22;63849;47.546;19.254;2023-04-03T12:28:53;9.70;47.60
51215;DHT22;63849;47.546;19.254;2023-04-03T12:31:25;9.90;47.50
51215;DHT22;63849;47.546;19.254;2023-04-03T12:34:14;10.00;48.20
51215;DHT22;63849;47.546;19.254;2023-04-03T12:46:14;10.10;48.00
51215;DHT22;63849;47.546;19.254;2023-04-03T12:51:19;10.10;48.40
51215;DHT22;63849;47.546;19.254;2023-04-03T12:53:50;10.20;49.10
51215;DHT22;63849;47.546;19.254;2023-04-03T12:56:24;10.70;48.50
51215;DHT22;63849;47.546;19.254;2023-04-03T12:58:54;10.90;47.50
51215;DHT22;63849;47.546;19.254;2023-04-03T13:01:23;10.30;46.50
51215;DHT22;63849;47.546;19.254;2023-04-03T13:03:52;10.00;46.70
51215;DHT22;63849;47.546;19.254;2023-04-03T13:06:30;10.30;46.60
51215;DHT22;63849;47.546;19.254;2023-04-03T13:08:59;10.10;44.40
51215;DHT22;63849;47.546;19.254;2023-04-03T13:11:36;10.40;46.80
51215;DHT22;63849;47.546;19.254;2023-04-03T13:14:24;10.90;46.80
51215;DHT22;63849;47.546;19.254;2023-04-03T13:17:17;10.80;43.70
51215;DHT22;63849;47.546;19.254;2023-04-03T13:19:44;10.40;43.80
51215;DHT22;63849;47.546;19.254;2023-04-03T13:24:51;10.60;43.40
51215;DHT22;63849;47.546;19.254;2023-04-03T13:27:21;10.60;45.00
51215;DHT22;63849;47.546;19.254;2023-04-03T13:29:54;10.50;45.20
51215;DHT22;63849;47.546;19.254;2023-04-03T13:32:25;10.80;44.30
51215;DHT22;63849;47.546;19.254;2023-04-03T13:34:52;11.30;44.10
51215;DHT22;63849;47.546;19.254;2023-04-03T13:37:31;11.00;43.70
51215;DHT22;63849;47.546;19.254;2023-04-03T13:40:00;10.90;43.40
51215;DHT22;63849;47.546;19.254;2023-04-03T13:42:30;10.70;44.30
51215;DHT22;63849;47.546;19.254;2023-04-03T13:47:45;10.30;43.60
51215;DHT22;63849;47.546;19.254;2023-04-03T13:53:00;10.80;44.00
51215;DHT22;63849;47.546;19.254;2023-04-03T13:55:33;10.70;43.70
51215;DHT22;63849;47.546;19.254;2023-04-03T13:58:16;11.10;42.90
51215;DHT22;63849;47.546;19.254;2023-04-03T14:00:51;10.70;43.80
51215;DHT22;63849;47.546;19.254;2023-04-03T14:03:30;10.80;43.10
51215;DHT22;63849;47.546;19.254;2023-04-03T14:05:56;10.90;43.70
51215;DHT22;63849;47.546;19.254;2023-04-03T14:08:22;10.80;44.00
51215;DHT22;63849;47.546;19.254;2023-04-03T14:10:49;10.60;43.60
51215;DHT22;63849;47.546;19.254;2023-04-03T14:13:18;10.40;44.10
51215;DHT22;63849;47.546;19.254;2023-04-03T14:15:46;10.50;43.70
51215;DHT22;63849;47.546;19.254;2023-04-03T14:18:17;10.50;43.50
51215;DHT22;63849;47.546;19.254;2023-04-03T14:20:46;10.80;43.20
51215;DHT22;63849;47.546;19.254;2023-04-03T14:23:13;10.90;44.20
51215;DHT22;63849;47.546;19.254;2023-04-03T14:25:39;11.00;42.70
51215;DHT22;63849;47.546;19.254;2023-04-03T14:28:19;10.70;44.30
51215;DHT22;63849;47.546;19.254;2023-04-03T14:30:49;10.80;44.10
51215;DHT22;63849;47.546;19.254;2023-04-03T14:33:19;11.10;43.50
51215;DHT22;63849;47.546;19.254;2023-04-03T14:35:47;10.60;42.80
51215;DHT22;63849;47.546;19.254;2023-04-03T14:38:33;10.70;42.90
51215;DHT22;63849;47.546;19.254;2023-04-03T14:40:59;10.60;43.80
51215;DHT22;63849;47.546;19.254;2023-04-03T14:43:25;10.70;43.40
51215;DHT22;63849;47.546;19.254;2023-04-03T14:45:55;10.80;43.50
51215;DHT22;63849;47.546;19.254;2023-04-03T14:48:25;10.70;42.90
51215;DHT22;63849;47.546;19.254;2023-04-03T14:50:53;10.60;43.10
51215;DHT22;63849;47.546;19.254;2023-04-03T14:53:20;10.40;43.10
51215;DHT22;63849;47.546;19.254;2023-04-03T14:55:50;10.30;44.10
51215;DHT22;63849;47.546;19.254;2023-04-03T14:58:20;10.40;44.40
51215;DHT22;63849;47.546;19.254;2023-04-03T15:05:57;10.10;45.20
51215;DHT22;63849;47.546;19.254;2023-04-03T15:08:25;10.10;45.50
51215;DHT22;63849;47.546;19.254;2023-04-03T15:10:52;10.30;46.00
51215;DHT22;63849;47.546;19.254;2023-04-03T15:13:19;10.00;46.20
51215;DHT22;63849;47.546;19.254;2023-04-03T15:15:46;10.10;45.70
51215;DHT22;63849;47.546;19.254;2023-04-03T15:18:21;9.90;46.00
51215;DHT22;63849;47.546;19.254;2023-04-03T15:20:48;9.80;46.00
51215;DHT22;63849;47.546;19.254;2023-04-03T15:23:17;9.80;46.00
51215;DHT22;63849;47.546;19.254;2023-04-03T15:25:45;9.80;44.70
51215;DHT22;63849;47.546;19.254;2023-04-03T15:28:34;9.70;45.00
51215;DHT22;63849;47.546;19.254;2023-04-03T15:31:02;9.70;44.80
51215;DHT22;63849;47.546;19.254;2023-04-03T15:33:36;9.60;45.80
51215;DHT22;63849;47.546;19.254;2023-04-03T15:36:02;9.60;44.60
51215;DHT22;63849;47.546;19.254;2023-04-03T15:38:31;9.40;44.80
51215;DHT22;63849;47.546;19.254;2023-04-03T15:40:57;9.30;45.50
51215;DHT22;63849;47.546;19.254;2023-04-03T15:43:23;9.10;44.40
51215;DHT22;63849;47.546;19.254;2023-04-03T15:45:49;8.80;44.40
51215;DHT22;63849;47.546;19.254;2023-04-03T15:48:17;8.80;44.10
51215;DHT22;63849;47.546;19.254;2023-04-03T15:50:44;8.80;45.10
51215;DHT22;63849;47.546;19.254;2023-04-03T15:53:12;8.60;44.90
51215;DHT22;63849;47.546;19.254;2023-04-03T15:55:38;8.50;45.20
51215;DHT22;63849;47.546;19.254;2023-04-03T15:58:04;8.50;46.40
51215;DHT22;63849;47.546;19.254;2023-04-03T16:00:32;8.30;44.80
51215;DHT22;63849;47.546;19.254;2023-04-03T16:03:02;8.20;45.00
51215;DHT22;63849;47.546;19.254;2023-04-03T16:05:31;8.20;45.40
51215;DHT22;63849;47.546;19.254;2023-04-03T16:07:59;7.90;45.20
51215;DHT22;63849;47.546;19.254;2023-04-03T16:10:25;7.90;45.70
51215;DHT22;63849;47.546;19.254;2023-04-03T16:12:51;8.00;46.00
51215;DHT22;63849;47.546;19.254;2023-04-03T16:15:17;7.90;45.20
51215;DHT22;63849;47.546;19.254;2023-04-03T16:17:43;7.90;46.00
51215;DHT22;63849;47.546;19.254;2023-04-03T16:20:13;7.90;45.80
51215;DHT22;63849;47.546;19.254;2023-04-03T16:22:40;7.80;45.20
51215;DHT22;63849;47.546;19.254;2023-04-03T16:25:08;7.80;45.30
51215;DHT22;63849;47.546;19.254;2023-04-03T16:27:35;7.80;45.80
51215;DHT22;63849;47.546;19.254;2023-04-03T16:30:02;7.60;45.80
51215;DHT22;63849;47.546;19.254;2023-04-03T16:32:30;7.60;45.80
51215;DHT22;63849;47.546;19.254;2023-04-03T16:34:57;7.50;46.00
51215;DHT22;63849;47.546;19.254;2023-04-03T16:37:23;7.50;45.40
51215;DHT22;63849;47.546;19.254;2023-04-03T16:39:49;7.40;45.80
51215;DHT22;63849;47.546;19.254;2023-04-03T16:42:15;7.30;46.00
51215;DHT22;63849;47.546;19.254;2023-04-03T16:44:41;7.30;46.30
51215;DHT22;63849;47.546;19.254;2023-04-03T16:47:07;7.30;46.10
51215;DHT22;63849;47.546;19.254;2023-04-03T16:49:34;7.30;46.50
51215;DHT22;63849;47.546;19.254;2023-04-03T16:52:03;7.20;46.70
51215;DHT22;63849;47.546;19.254;2023-04-03T16:54:30;7.30;47.20
51215;DHT22;63849;47.546;19.254;2023-04-03T16:56:56;7.10;47.00
51215;DHT22;63849;47.546;19.254;2023-04-03T16:59:22;7.10;47.10
51215;DHT22;63849;47.546;19.254;2023-04-03T17:01:49;7.10;48.20
51215;DHT22;63849;47.546;19.254;2023-04-03T17:04:15;7.00;47.60